Portada
METAR-TAF:

METAR-TAF

Aeroports :

Air_Force_Base

Plattsburgh, Nova York, Estats Units d'Amèrica

latitud: 44-39N, longitud: 073-28W, altitud: 72 m

Observació

L'informe es va fer fa 24 minuts, a les 21:53 UTC
Vent 11 kt del Sud/Sud-Est
Temperatura 24°C
Humitat 34%
Pressió 1019 hPa
Visibilitat: 16.1 km
Cel clar

METAR: KPBG 242153Z AUTO 15011KT 10SM CLR 24/07 A3009 RMK AO2 SLP188 T02390067

Hora: 18:17 (22:17 UTC)

Pronòstic

L'informe es va fer fa 4 hores i 35 minuts, a les 17:42 UTC
Pronòstic vàlid del 24 a les 18 UTC al 25 a les 18 UTC
Vent 14 kt del Sud-Est
Visibilitat: 10 km
Cel ennuvolat a una alçada de 18000 ft
A partir de les 25 a les 0900 UTC
Vent 11 kt del Sud/Sud-Est
Visibilitat: 10 km
Cel ennuvolat a una alçada de 15000 ft
A partir de les 25 a les 1400 UTC
Vent 14 kt del Sud/Sud-Est
Visibilitat: 10 km
Cel ennuvolat a una alçada de 7000 ft

TAF: KPBG 241742Z 2418/2518 14014KT P6SM BKN180 FM250900 16011KT P6SM BKN150 FM251400 16014KT P6SM BKN070

Observacions i pronòstics meteorològics de més de 4000 aeroports (METAR i TAF).

Les estacions disponibles són els punts grocs i vermells al mapa.

Posi el ratolí al punt desitjat per veure el nom de l'estació.

Feu clic per veure les observacions i els pronòstics meteorològics.

Per canviar el mapa: feu clic els botons verds amb una creu de color negre per apropar; al botó verd amb un guió per allunyar la imatge; o en les fletxes verdes per a mapes adjacents.


METAR-TAF: